首页
METAR-TAF:

METAR-TAF

机场 :

策尔特韦格, 奥地利

纬度: 47-12N, 经度: 014-45E, 海拔: 677米

当前天气观测

该预报发布于1小时和58分钟前的20:50 UTC
风速3节,风向北转西北
温度 23°C
湿度 69%
气压 1024 hPa

METAR: LOXZ 262050Z 34003KT 30KM FEW300CI 23/17 Q1024

时间: 00:48 (22:48 UTC)

预报

该预报发布于8小时和33分钟前的14:15 UTC
预报有效从26日的 15点(UTC)到 26日的 24点(UTC)
风速3节,风向多变
能见度10公里或以上
少量云层高于7000英尺
短暂存在
从 26日的 15点(UTC)到 26日的 18点(UTC)
风速8节,风向东转东南

TAF: LOXZ 261415Z 2615/2624 VRB03KT 9999 FEW070 TEMPO 2615/2618 12008KT

超过4000个机场的气象观测和天气预报(METAR&TAF报告)。

可查询的气象台以黄色和红色小点在地图上表示。

将鼠标移到小点上方,可查看气象台名称。

然后点击查看天气观测和预报。

如需切换地图:点击带黑十字的绿色按钮放大地图;点击带横线的绿色按钮缩小地图;或者点击绿色箭头查看邻近地区的地图。


METAR-TAF: